Adams, Nebraska
Current Conditions -  °F | °C
As of 12:55 AM on Monday 22 Dec 2014 (Local Time) from KBIE Reporting Station
Haze Haze  
Wind Chill: 35°   Ceiling: 500
Heat Index: 42°   Visibility: 3mi
Dew Point: 42°   Wind: 15mph
Humidity: 97%   Direction: 170°S
Pressure: 29.59"   Gusts: NA
Location:  40.46°N, 96.51°W
Report Text: KBIE 220655Z AUTO 17013KT 3SM BR OVC005 06/05 A2959 RMK AO2 T00580054
Loading
Personal Weather Stations






























Interactive Weather Map New forecast layout! Learn more

10-Day Weather Forecast

Advertisements
Track Severe Weather on mobile